createdAt,value
2022-09-05T00:02:41.847Z,21.50
2022-09-05T00:06:00.164Z,21.50
2022-09-05T00:08:48.092Z,21.60
2022-09-05T00:11:40.626Z,21.60
2022-09-05T00:14:12.022Z,21.60
2022-09-05T00:16:57.042Z,21.60
2022-09-05T00:24:31.666Z,21.60
2022-09-05T00:24:37.913Z,21.60
2022-09-05T00:26:28.700Z,21.60
2022-09-05T00:29:50.497Z,21.60
2022-09-05T00:32:17.472Z,21.50
2022-09-05T00:34:58.984Z,21.50
2022-09-05T00:37:50.431Z,21.50
2022-09-05T00:40:32.454Z,21.50
2022-09-05T00:43:05.647Z,21.40
2022-09-05T00:45:43.599Z,21.40
2022-09-05T00:48:25.469Z,21.40
2022-09-05T00:50:55.154Z,21.30
2022-09-05T00:53:25.293Z,21.30
2022-09-05T00:56:04.158Z,21.30
2022-09-05T00:59:04.372Z,21.20
2022-09-05T01:01:57.708Z,21.20
2022-09-05T01:04:53.563Z,21.20
2022-09-05T01:08:03.019Z,21.10
2022-09-05T01:11:00.654Z,21.10
2022-09-05T01:13:47.809Z,21.10
2022-09-05T01:16:40.927Z,21.10
2022-09-05T01:19:43.039Z,21.00
2022-09-05T01:22:24.178Z,21.00
2022-09-05T01:25:28.457Z,21.00
2022-09-05T01:29:12.865Z,21.00
2022-09-05T01:31:32.586Z,20.90
2022-09-05T01:34:14.607Z,20.90
2022-09-05T01:36:52.331Z,20.90
2022-09-05T01:40:11.569Z,20.90
2022-09-05T01:42:37.247Z,20.80
2022-09-05T01:45:20.770Z,20.80
2022-09-05T01:47:57.071Z,20.80
2022-09-05T01:50:58.774Z,20.80
2022-09-05T01:53:38.043Z,20.80
2022-09-05T01:56:30.004Z,20.70
2022-09-05T01:59:08.380Z,20.70
2022-09-05T02:01:59.723Z,20.70
2022-09-05T02:05:05.412Z,20.70
2022-09-05T02:08:01.520Z,20.60
2022-09-05T02:10:40.631Z,20.60
2022-09-05T02:13:27.816Z,20.60
2022-09-05T02:16:33.221Z,20.60
2022-09-05T02:19:09.120Z,20.60
2022-09-05T02:21:55.958Z,20.60
2022-09-05T02:24:27.096Z,20.60
2022-09-05T02:27:46.110Z,20.60
2022-09-05T02:30:11.331Z,20.60
2022-09-05T02:33:11.957Z,20.60
2022-09-05T02:35:59.777Z,20.60
2022-09-05T02:41:24.509Z,20.50
2022-09-05T02:45:10.274Z,20.60
2022-09-05T02:45:25.712Z,20.60
2022-09-05T02:47:59.974Z,20.60
2022-09-05T02:55:46.420Z,20.50
2022-09-05T02:57:37.223Z,20.50
2022-09-05T02:57:47.031Z,20.50
2022-09-05T03:00:25.927Z,20.50
2022-09-05T03:03:28.272Z,20.50
2022-09-05T03:06:34.246Z,20.50
2022-09-05T03:09:32.921Z,20.40
2022-09-05T03:12:29.246Z,20.40
2022-09-05T03:15:33.920Z,20.40
2022-09-05T03:18:29.736Z,20.40
2022-09-05T03:21:19.938Z,20.40
2022-09-05T03:24:05.379Z,20.40
2022-09-05T03:26:47.660Z,20.40
2022-09-05T03:29:29.505Z,20.40
2022-09-05T03:32:02.067Z,20.40
2022-09-05T03:34:53.697Z,20.40
2022-09-05T03:37:29.399Z,20.40
2022-09-05T03:40:25.482Z,20.40
2022-09-05T03:43:34.678Z,20.50
2022-09-05T03:46:08.140Z,20.40
2022-09-05T03:48:48.159Z,20.40
2022-09-05T03:57:07.800Z,20.40
2022-09-05T03:57:19.608Z,20.40
2022-09-05T03:58:03.452Z,20.40
2022-09-05T04:01:10.767Z,20.40
2022-09-05T04:08:08.181Z,20.30
2022-09-05T04:08:17.182Z,20.30
2022-09-05T04:10:00.025Z,20.30
2022-09-05T04:12:46.348Z,20.30
2022-09-05T04:15:34.832Z,20.30
2022-09-05T04:18:18.339Z,20.30
2022-09-05T04:21:21.711Z,20.30
2022-09-05T04:23:48.657Z,20.30
2022-09-05T04:26:48.018Z,20.30
2022-09-05T04:29:42.052Z,20.30
2022-09-05T04:32:19.015Z,20.30
2022-09-05T04:35:04.975Z,20.30
2022-09-05T04:37:55.356Z,20.30
2022-09-05T04:40:40.553Z,20.30
2022-09-05T04:43:54.279Z,20.30
2022-09-05T04:46:48.301Z,20.30
2022-09-05T04:49:33.311Z,20.30
2022-09-05T04:52:31.744Z,20.30
2022-09-05T04:55:07.852Z,20.30
2022-09-05T04:57:45.670Z,20.40
2022-09-05T05:06:03.250Z,20.50
2022-09-05T05:06:10.846Z,20.50
2022-09-05T05:06:13.103Z,20.50
2022-09-05T05:08:49.449Z,20.60
2022-09-05T05:17:57.231Z,20.70
2022-09-05T05:18:00.928Z,20.70
2022-09-05T05:18:16.390Z,20.80
2022-09-05T05:20:44.113Z,20.90
2022-09-05T05:23:16.259Z,20.90
2022-09-05T05:25:54.743Z,21.00
2022-09-05T05:28:28.028Z,21.40
2022-09-05T05:31:01.494Z,22.10
2022-09-05T05:33:33.833Z,22.70
2022-09-05T05:36:03.718Z,23.10
2022-09-05T05:39:02.435Z,23.30
2022-09-05T05:41:49.829Z,23.50
2022-09-05T05:44:20.575Z,23.40
2022-09-05T05:46:58.412Z,23.30
2022-09-05T05:49:34.303Z,23.70
2022-09-05T05:52:21.031Z,24.10
2022-09-05T05:55:52.456Z,24.70
2022-09-05T05:58:15.886Z,25.40
2022-09-05T06:01:04.098Z,25.80
2022-09-05T06:03:43.259Z,25.60
2022-09-05T06:06:17.097Z,25.40
2022-09-05T06:14:47.986Z,25.80
2022-09-05T06:15:00.315Z,26.60
2022-09-05T06:16:01.482Z,27.30
2022-09-05T06:18:57.446Z,27.70
2022-09-05T06:22:07.729Z,28.00
2022-09-05T06:24:58.571Z,28.00
2022-09-05T06:28:18.090Z,28.10
2022-09-05T06:30:50.895Z,28.10
2022-09-05T06:33:46.839Z,28.50
2022-09-05T06:36:36.008Z,29.30
2022-09-05T06:39:46.564Z,30.00
2022-09-05T06:42:43.241Z,30.60
2022-09-05T06:45:28.281Z,31.20
2022-09-05T06:48:44.571Z,31.80
2022-09-05T06:51:28.233Z,32.10
2022-09-05T06:54:28.860Z,31.30
2022-09-05T06:57:48.791Z,30.20
2022-09-05T07:00:23.547Z,30.10
2022-09-05T07:03:09.628Z,30.70
2022-09-05T07:05:46.943Z,31.50
2022-09-05T07:08:35.660Z,32.40
2022-09-05T07:11:16.378Z,33.20
2022-09-05T07:13:45.487Z,33.80
2022-09-05T07:16:38.980Z,34.30
2022-09-05T07:19:18.087Z,34.70
2022-09-05T07:21:47.744Z,35.10
2022-09-05T07:24:53.998Z,35.10
2022-09-05T07:27:11.147Z,34.90
2022-09-05T07:30:00.716Z,35.00
2022-09-05T07:32:31.530Z,35.30
2022-09-05T07:35:02.856Z,35.20
2022-09-05T07:37:41.730Z,34.90
2022-09-05T07:40:26.359Z,35.10
2022-09-05T07:43:09.297Z,35.90
2022-09-05T07:45:55.528Z,36.70
2022-09-05T07:48:35.043Z,37.50
2022-09-05T07:55:28.930Z,38.10
2022-09-05T07:56:52.572Z,38.50
2022-09-05T07:57:27.037Z,38.70
2022-09-05T07:59:51.107Z,38.60
2022-09-05T08:02:18.145Z,38.90
2022-09-05T08:04:45.200Z,39.00
2022-09-05T08:07:51.751Z,39.10
2022-09-05T08:10:35.757Z,39.00
2022-09-05T08:13:23.661Z,38.20
2022-09-05T08:16:12.936Z,37.30
2022-09-05T08:19:09.607Z,36.80
2022-09-05T08:21:51.718Z,36.20
2022-09-05T08:24:41.268Z,36.30
2022-09-05T08:27:21.864Z,36.10
2022-09-05T08:30:26.182Z,36.00
2022-09-05T08:33:10.436Z,35.60
2022-09-05T08:35:49.811Z,35.30
2022-09-05T08:38:21.015Z,35.30
2022-09-05T08:41:52.310Z,35.10
2022-09-05T08:46:43.898Z,35.20
2022-09-05T08:47:58.643Z,36.20
2022-09-05T08:50:55.212Z,35.70
2022-09-05T08:53:47.393Z,34.80
2022-09-05T08:56:20.506Z,34.60
2022-09-05T08:59:32.141Z,35.50
2022-09-05T09:02:47.731Z,36.30
2022-09-05T09:05:14.390Z,36.20
2022-09-05T09:08:28.624Z,35.60
2022-09-05T09:11:06.063Z,34.90
2022-09-05T09:13:54.425Z,34.20
2022-09-05T09:16:30.638Z,33.30
2022-09-05T09:19:19.996Z,32.70
2022-09-05T09:22:14.551Z,32.40
2022-09-05T09:25:15.054Z,32.30
2022-09-05T09:28:47.670Z,32.40
2022-09-05T09:31:09.843Z,33.40
2022-09-05T09:33:59.733Z,33.80
2022-09-05T09:36:53.047Z,34.70
2022-09-05T09:39:38.665Z,36.20
2022-09-05T09:42:32.471Z,35.80
2022-09-05T09:45:29.251Z,35.30
2022-09-05T09:48:23.700Z,34.70
2022-09-05T09:51:06.731Z,33.70
2022-09-05T09:53:54.771Z,33.80
2022-09-05T09:56:40.494Z,33.60
2022-09-05T09:59:19.963Z,34.60
2022-09-05T10:01:56.010Z,35.20
2022-09-05T10:10:33.314Z,34.30
2022-09-05T10:10:52.195Z,34.00
2022-09-05T10:11:55.822Z,34.40
2022-09-05T10:14:49.658Z,34.90
2022-09-05T10:17:24.909Z,36.20
2022-09-05T10:20:31.806Z,36.90
2022-09-05T10:23:23.140Z,36.60
2022-09-05T10:26:08.921Z,37.10
2022-09-05T10:28:42.825Z,37.90
2022-09-05T10:35:00.745Z,38.90
2022-09-05T10:35:17.539Z,39.90
2022-09-05T10:37:23.795Z,39.80
2022-09-05T10:39:51.967Z,40.20
2022-09-05T10:43:00.939Z,40.80
2022-09-05T10:45:45.459Z,40.50
2022-09-05T10:48:24.461Z,40.00
2022-09-05T10:51:01.205Z,40.20
2022-09-05T10:53:42.916Z,40.00
2022-09-05T10:56:29.149Z,38.70
2022-09-05T11:01:04.182Z,37.40
2022-09-05T11:02:29.397Z,36.70
2022-09-05T11:05:04.027Z,37.10
2022-09-05T11:07:43.775Z,37.40
2022-09-05T11:10:14.160Z,38.20
2022-09-05T11:13:04.293Z,39.40
2022-09-05T11:15:47.814Z,40.70
2022-09-05T11:19:02.292Z,41.10
2022-09-05T11:22:13.823Z,41.00
2022-09-05T11:24:51.179Z,40.90
2022-09-05T11:27:40.087Z,40.20
2022-09-05T11:30:30.456Z,38.90
2022-09-05T11:38:55.130Z,38.40
2022-09-05T11:40:08.920Z,41.10
2022-09-05T11:40:10.854Z,39.70
2022-09-05T11:42:37.502Z,42.00
2022-09-05T11:45:22.971Z,42.20
2022-09-05T11:47:58.451Z,42.40
2022-09-05T11:50:49.161Z,42.80
2022-09-05T11:53:16.068Z,43.00
2022-09-05T11:55:53.000Z,43.00
2022-09-05T11:58:48.935Z,43.50
2022-09-05T12:01:41.788Z,43.90
2022-09-05T12:04:38.416Z,43.90
2022-09-05T12:07:29.728Z,43.40
2022-09-05T12:10:10.208Z,42.80
2022-09-05T12:13:17.172Z,42.90
2022-09-05T12:15:49.771Z,42.20
2022-09-05T12:18:54.085Z,41.50
2022-09-05T12:21:38.294Z,41.70
2022-09-05T12:25:24.690Z,41.90
2022-09-05T12:27:38.202Z,41.50
2022-09-05T12:30:00.622Z,41.10
2022-09-05T12:34:44.496Z,41.40
2022-09-05T12:40:30.214Z,41.60
2022-09-05T12:41:32.380Z,41.60
2022-09-05T12:42:25.719Z,41.10
2022-09-05T12:45:18.996Z,40.80
2022-09-05T12:48:11.326Z,40.60
2022-09-05T12:51:05.128Z,40.20
2022-09-05T12:54:03.988Z,40.40
2022-09-05T13:00:29.021Z,40.70
2022-09-05T13:03:06.705Z,41.00
2022-09-05T13:03:40.597Z,40.90
2022-09-05T13:06:04.084Z,41.00
2022-09-05T13:08:59.493Z,40.70
2022-09-05T13:14:55.293Z,39.90
2022-09-05T13:15:08.059Z,38.20
2022-09-05T13:17:16.658Z,36.60
2022-09-05T13:19:51.808Z,35.60
2022-09-05T13:22:22.743Z,35.60
2022-09-05T13:25:10.056Z,36.20
2022-09-05T13:27:46.557Z,36.90
2022-09-05T13:34:22.008Z,37.30
2022-09-05T13:38:12.200Z,38.20
2022-09-05T13:38:15.037Z,37.80
2022-09-05T13:39:09.650Z,38.60
2022-09-05T13:41:49.537Z,38.90
2022-09-05T13:44:26.762Z,38.90
2022-09-05T13:47:29.502Z,39.20
2022-09-05T13:50:23.203Z,39.70
2022-09-05T13:53:14.819Z,40.30
2022-09-05T13:56:03.751Z,40.50
2022-09-05T13:58:38.722Z,40.80
2022-09-05T14:01:33.355Z,40.80
2022-09-05T14:10:41.483Z,40.50
2022-09-05T14:13:37.024Z,40.40
2022-09-05T14:16:13.458Z,40.40
2022-09-05T14:19:07.728Z,40.40
2022-09-05T14:21:38.807Z,40.10
2022-09-05T14:24:28.001Z,38.80
2022-09-05T14:27:03.069Z,37.50
2022-09-05T14:29:55.247Z,36.70
2022-09-05T14:37:41.813Z,36.20
2022-09-05T14:37:45.376Z,35.70
2022-09-05T14:39:02.644Z,35.70
2022-09-05T14:41:44.436Z,35.80
2022-09-05T14:44:46.799Z,36.10
2022-09-05T14:47:43.748Z,36.60
2022-09-05T14:50:21.140Z,36.90
2022-09-05T14:56:44.368Z,36.80
2022-09-05T15:02:38.281Z,36.80
2022-09-05T15:02:53.441Z,37.00
2022-09-05T15:04:40.896Z,36.90
2022-09-05T15:07:18.587Z,36.80
2022-09-05T15:11:47.232Z,36.90
2022-09-05T15:12:46.092Z,37.00
2022-09-05T15:15:28.815Z,37.00
2022-09-05T15:18:10.650Z,36.90
2022-09-05T15:20:46.805Z,36.70
2022-09-05T15:23:19.759Z,36.80
2022-09-05T15:26:16.076Z,36.70
2022-09-05T15:28:45.543Z,36.60
2022-09-05T15:31:23.506Z,36.40
2022-09-05T15:33:52.725Z,36.20
2022-09-05T15:36:40.240Z,35.80
2022-09-05T15:39:24.269Z,35.50
2022-09-05T15:41:53.379Z,35.10
2022-09-05T15:44:34.090Z,34.80
2022-09-05T15:47:11.297Z,34.50
2022-09-05T15:49:39.704Z,34.30
2022-09-05T15:52:34.003Z,34.20
2022-09-05T15:55:18.661Z,34.00
2022-09-05T15:57:56.534Z,33.70
2022-09-05T16:00:41.102Z,33.30
2022-09-05T16:03:55.271Z,33.10
2022-09-05T16:10:28.798Z,32.90
2022-09-05T16:10:34.624Z,32.60
2022-09-05T16:12:16.480Z,32.40
2022-09-05T16:16:55.057Z,32.20
2022-09-05T16:23:14.636Z,32.10
2022-09-05T16:23:26.777Z,31.90
2022-09-05T16:23:41.530Z,31.50
2022-09-05T16:26:31.624Z,31.10
2022-09-05T16:29:26.150Z,30.80
2022-09-05T16:32:00.113Z,30.60
2022-09-05T16:34:34.048Z,30.40
2022-09-05T16:37:09.212Z,30.30
2022-09-05T16:39:41.374Z,30.10
2022-09-05T16:42:45.974Z,30.00
2022-09-05T16:45:44.285Z,29.80
2022-09-05T16:48:23.403Z,29.60
2022-09-05T16:51:13.416Z,29.40
2022-09-05T16:53:58.191Z,29.30
2022-09-05T16:56:41.872Z,29.10
2022-09-05T16:59:11.022Z,29.00
2022-09-05T17:02:05.881Z,28.80
2022-09-05T17:05:04.792Z,28.70
2022-09-05T17:07:47.520Z,28.60
2022-09-05T17:10:20.140Z,28.50
2022-09-05T17:12:52.193Z,28.40
2022-09-05T17:15:35.471Z,28.30
2022-09-05T17:18:20.389Z,28.20
2022-09-05T17:20:56.334Z,28.10
2022-09-05T17:29:15.353Z,28.00
2022-09-05T17:29:36.091Z,28.00
2022-09-05T17:32:39.059Z,27.80
2022-09-05T17:35:42.241Z,27.60
2022-09-05T17:38:28.489Z,27.50
2022-09-05T17:41:13.462Z,27.30
2022-09-05T17:43:41.504Z,27.20
2022-09-05T17:46:20.272Z,27.00
2022-09-05T17:49:03.321Z,26.90
2022-09-05T17:51:51.471Z,26.80
2022-09-05T17:54:30.943Z,26.70
2022-09-05T17:57:26.591Z,26.60
2022-09-05T18:00:07.020Z,26.50
2022-09-05T18:02:54.608Z,26.50
2022-09-05T18:05:56.898Z,26.40
2022-09-05T18:08:46.110Z,26.30
2022-09-05T18:14:25.249Z,26.10
2022-09-05T18:17:35.517Z,26.00
2022-09-05T18:19:46.233Z,25.90
2022-09-05T18:22:33.830Z,25.90
2022-09-05T18:28:20.385Z,25.80
2022-09-05T18:30:49.786Z,25.70
2022-09-05T18:33:54.579Z,25.60
2022-09-05T18:36:28.514Z,25.60
2022-09-05T18:39:22.551Z,25.50
2022-09-05T18:42:33.137Z,25.50
2022-09-05T18:45:14.572Z,25.40
2022-09-05T18:47:51.210Z,25.30
2022-09-05T18:50:27.811Z,25.30
2022-09-05T18:53:10.743Z,25.20
2022-09-05T18:56:13.087Z,25.20
2022-09-05T18:58:52.348Z,25.20
2022-09-05T19:01:40.267Z,25.10
2022-09-05T19:04:39.058Z,25.10
2022-09-05T19:07:12.216Z,25.00
2022-09-05T19:09:58.146Z,24.90
2022-09-05T19:12:33.885Z,24.90
2022-09-05T19:15:13.858Z,24.80
2022-09-05T19:17:47.310Z,24.80
2022-09-05T19:20:32.802Z,24.80
2022-09-05T19:23:13.452Z,24.80
2022-09-05T19:25:43.877Z,24.70
2022-09-05T19:34:36.610Z,24.70
2022-09-05T19:36:48.935Z,24.60
2022-09-05T19:36:51.020Z,24.60
2022-09-05T19:37:29.661Z,24.50
2022-09-05T19:47:27.073Z,24.50
2022-09-05T19:47:40.060Z,24.40
2022-09-05T19:47:44.517Z,24.40
2022-09-05T19:48:30.716Z,24.40
2022-09-05T19:51:17.183Z,24.30
2022-09-05T19:54:03.965Z,24.30
2022-09-05T19:56:44.208Z,24.30
2022-09-05T19:59:23.949Z,24.20
2022-09-05T20:01:53.167Z,24.20
2022-09-05T20:04:21.549Z,24.20
2022-09-05T20:06:49.842Z,24.10
2022-09-05T20:09:22.439Z,24.10
2022-09-05T20:12:00.573Z,24.00
2022-09-05T20:14:30.378Z,24.00
2022-09-05T20:17:31.098Z,24.00
2022-09-05T20:20:13.167Z,24.00
2022-09-05T20:22:50.638Z,23.90
2022-09-05T20:25:43.816Z,23.90
2022-09-05T20:28:16.808Z,23.90
2022-09-05T20:30:48.336Z,23.80
2022-09-05T20:33:21.429Z,23.80
2022-09-05T20:43:14.374Z,23.70
2022-09-05T20:43:19.944Z,23.80
2022-09-05T20:43:20.493Z,23.80
2022-09-05T20:44:22.795Z,23.70
2022-09-05T20:54:08.737Z,23.70
2022-09-05T20:54:17.372Z,23.70
2022-09-05T20:54:21.530Z,23.70
2022-09-05T20:56:05.088Z,23.60
2022-09-05T20:58:33.853Z,23.60
2022-09-05T21:01:21.291Z,23.60
2022-09-05T21:04:04.126Z,23.70
2022-09-05T21:06:34.469Z,23.60
2022-09-05T21:09:24.901Z,23.60
2022-09-05T21:11:58.681Z,23.60
2022-09-05T21:14:28.852Z,23.60
2022-09-05T21:17:01.416Z,23.60
2022-09-05T21:19:42.595Z,23.60
2022-09-05T21:22:19.021Z,23.50
2022-09-05T21:24:47.303Z,23.50
2022-09-05T21:27:23.188Z,23.40
2022-09-05T21:29:58.797Z,23.40
2022-09-05T21:32:38.054Z,23.40
2022-09-05T21:35:33.752Z,23.40
2022-09-05T21:37:58.345Z,23.40
2022-09-05T21:40:25.351Z,23.30
2022-09-05T21:47:33.142Z,23.30
2022-09-05T21:47:48.625Z,23.30
2022-09-05T21:48:27.837Z,23.20
2022-09-05T21:50:57.811Z,23.20
2022-09-05T21:59:08.185Z,23.20
2022-09-05T21:59:20.060Z,23.20
2022-09-05T21:59:26.708Z,23.20
2022-09-05T22:01:57.003Z,23.10
2022-09-05T22:04:24.108Z,23.10
2022-09-05T22:06:53.304Z,23.10
2022-09-05T22:09:24.280Z,23.10
2022-09-05T22:11:51.553Z,23.00
2022-09-05T22:14:20.728Z,23.10
2022-09-05T22:16:50.687Z,23.10
2022-09-05T22:19:29.932Z,23.10
2022-09-05T22:22:16.309Z,23.00
2022-09-05T22:25:02.026Z,23.00
2022-09-05T22:27:31.791Z,23.00
2022-09-05T22:29:58.939Z,22.90
2022-09-05T22:32:34.584Z,22.90
2022-09-05T22:35:27.306Z,22.90
2022-09-05T22:38:00.372Z,22.90
2022-09-05T22:40:29.091Z,22.80
2022-09-05T22:42:57.908Z,22.80
2022-09-05T22:45:25.498Z,22.80
2022-09-05T22:47:53.064Z,22.70
2022-09-05T22:50:20.277Z,22.70
2022-09-05T22:52:47.304Z,22.70
2022-09-05T22:55:14.457Z,22.60
2022-09-05T22:57:42.070Z,22.60
2022-09-05T23:00:10.353Z,22.60
2022-09-05T23:02:37.359Z,22.60
2022-09-05T23:05:05.759Z,22.60
2022-09-05T23:07:32.976Z,22.60
2022-09-05T23:10:00.184Z,22.50
2022-09-05T23:12:27.271Z,22.50
2022-09-05T23:14:54.274Z,22.50
2022-09-05T23:17:21.348Z,22.50
2022-09-05T23:19:48.287Z,22.40
2022-09-05T23:22:15.269Z,22.40
2022-09-05T23:24:42.215Z,22.40
2022-09-05T23:27:09.160Z,22.40
2022-09-05T23:29:36.143Z,22.30
2022-09-05T23:32:03.082Z,22.40
2022-09-05T23:34:33.038Z,22.40
2022-09-05T23:37:00.136Z,22.30
2022-09-05T23:39:27.208Z,22.30
2022-09-05T23:41:54.162Z,22.30
2022-09-05T23:44:21.154Z,22.30
2022-09-05T23:46:48.080Z,22.30
2022-09-05T23:49:15.057Z,22.30
2022-09-05T23:51:42.002Z,22.20
2022-09-05T23:54:08.940Z,22.30
2022-09-05T23:56:35.928Z,22.20
2022-09-05T23:59:02.928Z,22.20
